createdAt,value
2022-08-26T00:04:45.516Z,1014.6
2022-08-26T00:10:21.391Z,1014.5
2022-08-26T00:16:15.071Z,1014.5
2022-08-26T00:21:49.914Z,1014.5
2022-08-26T00:27:06.713Z,1014.4
2022-08-26T00:32:58.910Z,1014.5
2022-08-26T00:38:39.507Z,1014.4
2022-08-26T00:43:54.582Z,1014.5
2022-08-26T00:49:33.394Z,1014.6
2022-08-26T00:55:01.469Z,1014.7
2022-08-26T01:00:34.875Z,1014.8
2022-08-26T01:06:32.098Z,1014.8
2022-08-26T01:11:41.035Z,1014.9
2022-08-26T01:17:26.985Z,1015
2022-08-26T01:22:55.028Z,1015
2022-08-26T01:28:36.917Z,1014.9
2022-08-26T01:34:19.643Z,1015
2022-08-26T01:39:43.561Z,1015
2022-08-26T01:45:29.638Z,1014.9
2022-08-26T01:51:08.279Z,1015
2022-08-26T01:56:23.686Z,1015.4
2022-08-26T02:01:58.530Z,1015.7
2022-08-26T02:07:51.009Z,1015.6
2022-08-26T02:13:24.590Z,1015.7
2022-08-26T02:19:03.626Z,1015.9
2022-08-26T02:24:24.602Z,1015.9
2022-08-26T02:30:01.229Z,1015.8
2022-08-26T02:35:36.717Z,1015.8
2022-08-26T02:41:08.836Z,1016.1
2022-08-26T02:46:32.139Z,1015.9
2022-08-26T02:52:09.275Z,1015.9
2022-08-26T02:57:53.302Z,1016
2022-08-26T03:03:27.673Z,1015.9
2022-08-26T03:08:55.058Z,1015.7
2022-08-26T03:14:36.048Z,1015.4
2022-08-26T03:20:02.376Z,1015.3
2022-08-26T03:26:01.388Z,1015.8
2022-08-26T03:31:35.586Z,1015.8
2022-08-26T03:36:53.541Z,1016
2022-08-26T03:42:31.991Z,1016
2022-08-26T03:48:07.507Z,1016
2022-08-26T03:53:39.670Z,1015.9
2022-08-26T03:59:25.044Z,1015.9
2022-08-26T04:04:55.352Z,1015.9
2022-08-26T04:10:36.895Z,1015.8
2022-08-26T04:15:59.374Z,1015.7
2022-08-26T04:21:34.283Z,1015.6
2022-08-26T04:27:17.905Z,1015.8
2022-08-26T04:32:54.063Z,1015.8
2022-08-26T04:38:17.414Z,1015.9
2022-08-26T04:43:58.538Z,1015.9
2022-08-26T04:49:35.299Z,1016
2022-08-26T04:54:49.177Z,1015.8
2022-08-26T05:00:37.605Z,1015.8
2022-08-26T05:06:12.561Z,1015.8
2022-08-26T05:11:54.829Z,1015.8
2022-08-26T05:17:11.942Z,1015.8
2022-08-26T05:23:06.634Z,1015.7
2022-08-26T05:28:35.133Z,1015.5
2022-08-26T05:34:04.497Z,1015.3
2022-08-26T05:39:50.938Z,1015.5
2022-08-26T05:45:05.043Z,1015.7
2022-08-26T05:50:56.379Z,1015.8
2022-08-26T05:56:28.069Z,1015.8
2022-08-26T06:01:57.081Z,1015.7
2022-08-26T06:07:30.026Z,1015.8
2022-08-26T06:13:09.449Z,1015.6
2022-08-26T06:18:50.602Z,1015.7
2022-08-26T06:24:36.123Z,1015.7
2022-08-26T06:29:44.287Z,1015.8
2022-08-26T06:35:33.230Z,1015.7
2022-08-26T06:41:19.821Z,1015.8
2022-08-26T06:46:58.097Z,1015.6
2022-08-26T06:52:26.519Z,1015.6
2022-08-26T06:57:54.148Z,1015.6
2022-08-26T07:03:26.868Z,1015.5
2022-08-26T07:09:10.184Z,1015.4
2022-08-26T07:14:33.599Z,1015.4
2022-08-26T07:20:30.022Z,1015.5
2022-08-26T07:25:53.414Z,1015.5
2022-08-26T07:31:47.476Z,1015.3
2022-08-26T07:37:12.122Z,1015.4
2022-08-26T07:42:58.400Z,1015.3
2022-08-26T07:48:12.311Z,1015
2022-08-26T07:53:58.824Z,1015
2022-08-26T07:59:34.107Z,1014.8
2022-08-26T08:05:09.889Z,1014.7
2022-08-26T08:10:58.500Z,1014.5
2022-08-26T08:16:12.592Z,1014.6
2022-08-26T08:21:53.431Z,1014.6
2022-08-26T08:27:24.214Z,1014.4
2022-08-26T08:33:04.445Z,1014.2
2022-08-26T08:38:37.763Z,1014.1
2022-08-26T08:44:36.719Z,1014.2
2022-08-26T08:50:09.568Z,1014.1
2022-08-26T08:55:46.242Z,1014.2
2022-08-26T09:01:20.472Z,1014
2022-08-26T09:06:50.330Z,1014
2022-08-26T09:12:29.184Z,1013.9
2022-08-26T09:18:18.742Z,1013.7
2022-08-26T09:24:06.056Z,1013.7
2022-08-26T09:29:22.667Z,1013.4
2022-08-26T09:35:20.649Z,1013.4
2022-08-26T09:40:49.613Z,1013.4
2022-08-26T09:46:12.307Z,1013.3
2022-08-26T09:51:58.478Z,1013.2
2022-08-26T09:57:47.059Z,1013.2
2022-08-26T10:03:21.979Z,1013.3
2022-08-26T10:08:47.528Z,1013.4
2022-08-26T10:14:26.396Z,1013.4
2022-08-26T10:20:23.696Z,1013.3
2022-08-26T10:25:49.779Z,1013.2
2022-08-26T10:31:38.389Z,1013
2022-08-26T10:37:14.030Z,1012.9
2022-08-26T10:42:45.189Z,1012.9
2022-08-26T10:48:37.500Z,1012.8
2022-08-26T10:54:24.625Z,1012.8
2022-08-26T10:59:36.767Z,1012.8
2022-08-26T11:05:29.489Z,1012.7
2022-08-26T11:10:57.946Z,1012.7
2022-08-26T11:16:43.608Z,1012.6
2022-08-26T11:22:37.336Z,1012.6
2022-08-26T11:28:02.007Z,1012.3
2022-08-26T11:33:50.966Z,1012.4
2022-08-26T11:39:26.603Z,1012.2
2022-08-26T11:44:49.480Z,1012.2
2022-08-26T11:50:38.170Z,1012.1
2022-08-26T11:56:33.212Z,1012
2022-08-26T12:01:55.969Z,1011.9
2022-08-26T12:07:38.954Z,1011.9
2022-08-26T12:13:33.539Z,1012.1
2022-08-26T12:19:00.560Z,1012
2022-08-26T12:24:50.516Z,1012.2
2022-08-26T12:35:48.518Z,1012.6
2022-08-26T12:41:47.034Z,1012.5
2022-08-26T12:47:17.071Z,1012.4
2022-08-26T12:53:02.080Z,1012.4
2022-08-26T12:58:43.162Z,1012.3
2022-08-26T13:04:13.525Z,1012.3
2022-08-26T13:09:33.270Z,1012.4
2022-08-26T13:20:52.293Z,1012.6
2022-08-26T13:26:30.219Z,1012.6
2022-08-26T13:32:16.508Z,1012.5
2022-08-26T13:38:01.674Z,1012.6
2022-08-26T13:43:42.931Z,1012.5
2022-08-26T13:49:07.500Z,1012.4
2022-08-26T13:54:39.147Z,1012.6
2022-08-26T14:06:07.989Z,1012.5
2022-08-26T14:11:34.791Z,1012.5
2022-08-26T14:17:10.093Z,1012.5
2022-08-26T14:22:47.734Z,1012.3
2022-08-26T14:28:32.811Z,1012.7
2022-08-26T14:34:11.301Z,1012.9
2022-08-26T14:39:32.543Z,1013
2022-08-26T14:45:26.142Z,1012.9
2022-08-26T14:50:53.752Z,1012.8
2022-08-26T14:56:40.998Z,1012.9
2022-08-26T15:02:27.769Z,1012.8
2022-08-26T15:07:44.700Z,1012.7
2022-08-26T15:13:14.406Z,1012.9
2022-08-26T15:19:10.878Z,1012.8
2022-08-26T15:24:29.602Z,1012.8
2022-08-26T15:30:31.237Z,1013
2022-08-26T15:35:47.775Z,1012.9
2022-08-26T15:41:24.839Z,1012.9
2022-08-26T15:47:17.517Z,1012.9
2022-08-26T15:52:51.647Z,1012.9
2022-08-26T15:58:08.737Z,1013
2022-08-26T16:04:03.802Z,1013
2022-08-26T16:09:20.875Z,1013.1
2022-08-26T16:15:13.553Z,1013.3
2022-08-26T16:21:13.088Z,1013.3
2022-08-26T16:26:21.677Z,1013.3
2022-08-26T16:31:46.169Z,1013.5
2022-08-26T16:37:22.825Z,1013.6
2022-08-26T16:43:08.646Z,1013.6
2022-08-26T16:49:04.007Z,1013.7
2022-08-26T16:54:33.765Z,1013.6
2022-08-26T17:00:00.841Z,1013.6
2022-08-26T17:05:28.784Z,1013.5
2022-08-26T17:11:24.464Z,1013.5
2022-08-26T17:17:01.343Z,1013.5
2022-08-26T17:22:34.100Z,1013.6
2022-08-26T17:28:13.585Z,1013.7
2022-08-26T17:33:45.066Z,1013.7
2022-08-26T17:39:29.573Z,1013.7
2022-08-26T17:45:08.377Z,1013.8
2022-08-26T17:50:37.954Z,1013.9
2022-08-26T17:56:17.031Z,1014.1
2022-08-26T18:01:33.659Z,1014.1
2022-08-26T18:07:27.630Z,1014.1
2022-08-26T18:12:49.636Z,1014.3
2022-08-26T18:18:39.622Z,1014.3
2022-08-26T18:24:14.403Z,1014.4
2022-08-26T18:29:43.324Z,1014.4
2022-08-26T18:35:29.138Z,1014.5
2022-08-26T18:40:59.215Z,1014.6
2022-08-26T18:46:29.748Z,1014.8
2022-08-26T18:52:10.476Z,1015
2022-08-26T18:57:39.789Z,1015.1
2022-08-26T19:03:26.142Z,1015.2
2022-08-26T19:08:42.642Z,1015.1
2022-08-26T19:14:13.876Z,1015.2
2022-08-26T19:19:55.165Z,1014.9
2022-08-26T19:25:44.439Z,1014.9
2022-08-26T19:31:17.273Z,1015
2022-08-26T19:37:00.311Z,1015.1
2022-08-26T19:42:15.980Z,1015.1
2022-08-26T19:47:45.313Z,1015
2022-08-26T19:53:44.485Z,1015.1
2022-08-26T19:59:22.625Z,1015.2
2022-08-26T20:04:41.290Z,1015.3
2022-08-26T20:10:09.887Z,1015.3
2022-08-26T20:15:56.916Z,1015.3
2022-08-26T20:21:42.560Z,1015.3
2022-08-26T20:26:54.413Z,1015.2
2022-08-26T20:32:48.289Z,1015.3
2022-08-26T20:38:19.648Z,1015.3
2022-08-26T20:43:44.405Z,1015.3
2022-08-26T20:49:14.339Z,1015.5
2022-08-26T20:55:01.108Z,1015.6
2022-08-26T21:00:30.498Z,1015.7
2022-08-26T21:06:13.238Z,1015.6
2022-08-26T21:11:50.812Z,1015.6
2022-08-26T21:17:11.764Z,1015.6
2022-08-26T21:23:03.721Z,1015.6
2022-08-26T21:28:27.391Z,1015.6
2022-08-26T21:34:12.813Z,1015.7
2022-08-26T21:39:33.280Z,1015.7
2022-08-26T21:50:46.116Z,1015.6
2022-08-26T21:56:16.619Z,1015.5
2022-08-26T22:02:19.936Z,1015.6
2022-08-26T22:07:42.348Z,1015.6
2022-08-26T22:13:18.708Z,1015.8
2022-08-26T22:18:53.365Z,1016.1
2022-08-26T22:24:28.260Z,1016
2022-08-26T22:30:12.483Z,1016.1
2022-08-26T22:35:53.388Z,1016.2
2022-08-26T22:41:22.202Z,1016.6
2022-08-26T22:46:58.689Z,1016.6
2022-08-26T22:52:15.092Z,1016.7
2022-08-26T22:57:51.367Z,1016.7
2022-08-26T23:03:26.829Z,1016.4
2022-08-26T23:09:01.085Z,1016.4
2022-08-26T23:14:54.515Z,1015.9
2022-08-26T23:20:31.585Z,1016.2
2022-08-26T23:25:48.392Z,1016.2
2022-08-26T23:31:34.193Z,1016.2
2022-08-26T23:37:21.803Z,1016.3
2022-08-26T23:43:00.663Z,1016.4
2022-08-26T23:48:34.836Z,1016.4
2022-08-26T23:53:58.411Z,1016.5
2022-08-26T23:59:22.334Z,1016.3
